Quick Links (Output Below):   Max & Min Temps   /   Climate Reports   /   Zone Forecasts
River Forecasts   /   Forestry Forecasts   /   Aviation Forecasts   /   Radars   /   Features

Terminal Aerodrome Forecast (El Dorado)

Pick a Site:
Arkadelphia | El Dorado | Fayetteville | Fort Smith | Harrison | Highfill | Hot Springs | Jonesboro
Little Rock | Monticello | Mountain Home | Pine Bluff | Texarkana
 Forecast 

KELD 021255Z 0213/0312 16005KT P6SM OVC015
      TEMPO 0213/0215 BKN025
     FM021500 19009KT P6SM BKN030
     FM021700 19009KT P6SM VCTS SCT045CB
     FM030000 17004KT P6SM FEW060 SCT250
      TEMPO 0310/0312 5SM BR BKN005=


 Latest METARs (Observations) 
How to Decode METARs
17Z KELD 021653Z AUTO 28006KT 10SM -RA FEW027 SCT050 BKN070 29/25
         A3007 RMK AO2 LTG DSNT N RAB49 SLP178 P0000 T02890250
         
16Z KELD 021553Z AUTO 20005KT 10SM SCT030 BKN036 OVC043 28/24 A3007
         RMK AO2 SLP180 T02830239
         
15Z KELD 021453Z AUTO 18005KT 10SM SCT014 OVC024 27/24 A3005 RMK AO2
         SLP173 T02720244 53016
         
14Z KELD 021353Z AUTO 20004KT 10SM BKN009 BKN015 OVC020 26/24 A3004
         RMK AO2 CIG 006V011 SLP167 T02610244
         
13Z KELD 021253Z AUTO 16005KT 9SM BKN011 BKN018 24/24 A3002 RMK AO2
         SLP161 T02440239
         
12Z KELD 021153Z AUTO 14003KT 9SM SCT006 OVC015 24/23 A3001 RMK AO2
         SLP157 70003 T02390233 10244 20233 51008
         
11Z KELD 021053Z AUTO 17004KT 9SM SCT006 BKN016 24/23 A2999 RMK AO2
         SLP150 T02390233
         
10Z KELD 020953Z AUTO 17006KT 9SM OVC006 24/23 A2997 RMK AO2 CIG
         004V009 SLP144 T02390233
         
09Z KELD 020853Z AUTO 15004KT 10SM BKN006 24/23 A2996 RMK AO2 CIG
         004V009 SLP142 T02390233 55006
         
08Z KELD 020753Z AUTO 15009KT 10SM CLR 23/23 A2995 RMK AO2 SLP137
         T02330228
         
***** Today's Observations (Above) *****


Back to Main Page
http://www.srh.noaa.gov/lzk/qfcst.php

USA.gov is the U.S. government's official web portal to all federal, state and local government web resources and services.